sensor_id;sensor_type;location;lat;lon;timestamp;temperature;humidity
16289;DHT22;26089;43.538;5.250;2022-11-20T00:01:07;8.60;99.90
16289;DHT22;26089;43.538;5.250;2022-11-20T00:03:35;8.60;99.90
16289;DHT22;26089;43.538;5.250;2022-11-20T00:06:04;8.60;99.90
16289;DHT22;26089;43.538;5.250;2022-11-20T00:08:32;8.30;99.90
16289;DHT22;26089;43.538;5.250;2022-11-20T00:11:03;9.50;99.90
16289;DHT22;26089;43.538;5.250;2022-11-20T00:13:30;8.60;99.90
16289;DHT22;26089;43.538;5.250;2022-11-20T00:15:58;8.60;99.90
16289;DHT22;26089;43.538;5.250;2022-11-20T00:18:25;8.60;99.90
16289;DHT22;26089;43.538;5.250;2022-11-20T00:20:52;8.10;99.90
16289;DHT22;26089;43.538;5.250;2022-11-20T00:23:21;8.60;99.90
16289;DHT22;26089;43.538;5.250;2022-11-20T00:25:48;8.50;99.90
16289;DHT22;26089;43.538;5.250;2022-11-20T00:28:14;7.80;99.90
16289;DHT22;26089;43.538;5.250;2022-11-20T00:30:41;8.50;99.90
16289;DHT22;26089;43.538;5.250;2022-11-20T00:33:08;8.60;99.90
16289;DHT22;26089;43.538;5.250;2022-11-20T00:35:35;9.90;99.90
16289;DHT22;26089;43.538;5.250;2022-11-20T00:38:02;8.80;99.90
16289;DHT22;26089;43.538;5.250;2022-11-20T00:40:31;8.50;99.90
16289;DHT22;26089;43.538;5.250;2022-11-20T00:42:57;8.50;99.90
16289;DHT22;26089;43.538;5.250;2022-11-20T00:45:24;8.50;99.90
16289;DHT22;26089;43.538;5.250;2022-11-20T00:47:51;8.40;99.90
16289;DHT22;26089;43.538;5.250;2022-11-20T00:50:18;8.50;99.90
16289;DHT22;26089;43.538;5.250;2022-11-20T00:52:45;8.40;99.90
16289;DHT22;26089;43.538;5.250;2022-11-20T00:55:12;8.40;99.90
16289;DHT22;26089;43.538;5.250;2022-11-20T00:57:41;8.40;99.90
16289;DHT22;26089;43.538;5.250;2022-11-20T01:00:08;8.40;99.90
16289;DHT22;26089;43.538;5.250;2022-11-20T01:02:35;8.30;99.90
16289;DHT22;26089;43.538;5.250;2022-11-20T01:05:03;8.70;99.90
16289;DHT22;26089;43.538;5.250;2022-11-20T01:07:30;8.30;99.90
16289;DHT22;26089;43.538;5.250;2022-11-20T01:09:58;10.20;99.90
16289;DHT22;26089;43.538;5.250;2022-11-20T01:12:25;7.80;99.90
16289;DHT22;26089;43.538;5.250;2022-11-20T01:14:53;8.30;99.90
16289;DHT22;26089;43.538;5.250;2022-11-20T01:17:20;9.50;99.90
16289;DHT22;26089;43.538;5.250;2022-11-20T01:19:49;8.90;99.90
16289;DHT22;26089;43.538;5.250;2022-11-20T01:22:16;8.40;99.90
16289;DHT22;26089;43.538;5.250;2022-11-20T01:24:43;8.50;99.90
16289;DHT22;26089;43.538;5.250;2022-11-20T01:27:10;8.30;99.90
16289;DHT22;26089;43.538;5.250;2022-11-20T01:29:37;8.30;99.90
16289;DHT22;26089;43.538;5.250;2022-11-20T01:32:05;8.30;99.90
16289;DHT22;26089;43.538;5.250;2022-11-20T01:34:32;8.40;99.90
16289;DHT22;26089;43.538;5.250;2022-11-20T01:36:59;8.30;99.90
16289;DHT22;26089;43.538;5.250;2022-11-20T01:39:26;8.30;99.90
16289;DHT22;26089;43.538;5.250;2022-11-20T01:41:54;7.90;99.90
16289;DHT22;26089;43.538;5.250;2022-11-20T01:44:58;8.30;99.90
16289;DHT22;26089;43.538;5.250;2022-11-20T01:47:34;9.60;99.90
16289;DHT22;26089;43.538;5.250;2022-11-20T01:50:05;8.20;99.90
16289;DHT22;26089;43.538;5.250;2022-11-20T01:52:38;8.20;99.90
16289;DHT22;26089;43.538;5.250;2022-11-20T01:55:09;8.20;99.90
16289;DHT22;26089;43.538;5.250;2022-11-20T01:57:38;8.20;99.90
16289;DHT22;26089;43.538;5.250;2022-11-20T02:00:08;8.50;99.90
16289;DHT22;26089;43.538;5.250;2022-11-20T02:02:38;8.20;99.90
16289;DHT22;26089;43.538;5.250;2022-11-20T02:05:12;8.20;99.90
16289;DHT22;26089;43.538;5.250;2022-11-20T02:07:41;8.30;99.90
16289;DHT22;26089;43.538;5.250;2022-11-20T02:10:08;8.20;99.90
16289;DHT22;26089;43.538;5.250;2022-11-20T02:12:35;8.20;99.90
16289;DHT22;26089;43.538;5.250;2022-11-20T02:15:20;8.20;99.90
16289;DHT22;26089;43.538;5.250;2022-11-20T02:17:48;8.20;99.90
16289;DHT22;26089;43.538;5.250;2022-11-20T02:20:15;8.50;99.90
16289;DHT22;26089;43.538;5.250;2022-11-20T02:22:48;8.10;99.90
16289;DHT22;26089;43.538;5.250;2022-11-20T02:25:19;8.20;99.90
16289;DHT22;26089;43.538;5.250;2022-11-20T02:27:46;8.10;99.90
16289;DHT22;26089;43.538;5.250;2022-11-20T02:30:14;8.10;99.90
16289;DHT22;26089;43.538;5.250;2022-11-20T02:32:41;8.10;99.90
16289;DHT22;26089;43.538;5.250;2022-11-20T02:35:10;8.30;99.90
16289;DHT22;26089;43.538;5.250;2022-11-20T02:37:57;8.10;99.90
16289;DHT22;26089;43.538;5.250;2022-11-20T02:40:26;8.10;99.90
16289;DHT22;26089;43.538;5.250;2022-11-20T02:42:53;8.10;99.90
16289;DHT22;26089;43.538;5.250;2022-11-20T02:45:20;8.10;99.90
16289;DHT22;26089;43.538;5.250;2022-11-20T02:47:47;8.10;99.90
16289;DHT22;26089;43.538;5.250;2022-11-20T02:50:14;8.10;99.90
16289;DHT22;26089;43.538;5.250;2022-11-20T02:52:41;8.10;99.90
16289;DHT22;26089;43.538;5.250;2022-11-20T02:55:08;8.00;99.90
16289;DHT22;26089;43.538;5.250;2022-11-20T02:57:37;7.70;99.90
16289;DHT22;26089;43.538;5.250;2022-11-20T03:00:05;8.00;99.90
16289;DHT22;26089;43.538;5.250;2022-11-20T03:02:33;7.80;99.90
16289;DHT22;26089;43.538;5.250;2022-11-20T03:05:00;7.90;99.90
16289;DHT22;26089;43.538;5.250;2022-11-20T03:07:27;8.10;99.90
16289;DHT22;26089;43.538;5.250;2022-11-20T03:09:54;7.60;99.90
16289;DHT22;26089;43.538;5.250;2022-11-20T03:12:21;8.10;99.90
16289;DHT22;26089;43.538;5.250;2022-11-20T03:14:50;8.10;99.90
16289;DHT22;26089;43.538;5.250;2022-11-20T03:17:17;8.10;99.90
16289;DHT22;26089;43.538;5.250;2022-11-20T03:19:43;8.10;99.90
16289;DHT22;26089;43.538;5.250;2022-11-20T03:22:10;8.10;99.90
16289;DHT22;26089;43.538;5.250;2022-11-20T03:24:37;8.10;99.90
16289;DHT22;26089;43.538;5.250;2022-11-20T03:27:04;8.10;99.90
16289;DHT22;26089;43.538;5.250;2022-11-20T03:29:31;8.60;99.90
16289;DHT22;26089;43.538;5.250;2022-11-20T03:32:00;7.90;99.90
16289;DHT22;26089;43.538;5.250;2022-11-20T03:34:27;8.20;99.90
16289;DHT22;26089;43.538;5.250;2022-11-20T03:36:54;7.80;99.90
16289;DHT22;26089;43.538;5.250;2022-11-20T03:39:21;8.20;99.90
16289;DHT22;26089;43.538;5.250;2022-11-20T03:41:48;8.10;99.90
16289;DHT22;26089;43.538;5.250;2022-11-20T03:44:15;8.00;99.90
16289;DHT22;26089;43.538;5.250;2022-11-20T03:46:42;8.10;99.90
16289;DHT22;26089;43.538;5.250;2022-11-20T03:49:10;8.10;99.90
16289;DHT22;26089;43.538;5.250;2022-11-20T03:51:37;8.20;99.90
16289;DHT22;26089;43.538;5.250;2022-11-20T03:54:06;8.10;99.90
16289;DHT22;26089;43.538;5.250;2022-11-20T03:56:35;8.10;99.90
16289;DHT22;26089;43.538;5.250;2022-11-20T03:59:03;8.10;99.90
16289;DHT22;26089;43.538;5.250;2022-11-20T04:01:32;8.10;99.90
16289;DHT22;26089;43.538;5.250;2022-11-20T04:03:59;8.00;99.90
16289;DHT22;26089;43.538;5.250;2022-11-20T04:06:29;8.60;99.90
16289;DHT22;26089;43.538;5.250;2022-11-20T04:08:57;8.00;99.90
16289;DHT22;26089;43.538;5.250;2022-11-20T04:11:26;7.90;99.90
16289;DHT22;26089;43.538;5.250;2022-11-20T04:13:55;7.90;99.90
16289;DHT22;26089;43.538;5.250;2022-11-20T04:16:23;8.00;99.90
16289;DHT22;26089;43.538;5.250;2022-11-20T04:18:52;7.90;99.90
16289;DHT22;26089;43.538;5.250;2022-11-20T04:21:20;7.90;99.90
16289;DHT22;26089;43.538;5.250;2022-11-20T04:23:49;7.90;99.90
16289;DHT22;26089;43.538;5.250;2022-11-20T04:26:16;7.80;99.90
16289;DHT22;26089;43.538;5.250;2022-11-20T04:28:44;7.90;99.90
16289;DHT22;26089;43.538;5.250;2022-11-20T04:31:12;7.90;99.90
16289;DHT22;26089;43.538;5.250;2022-11-20T04:33:40;7.90;99.90
16289;DHT22;26089;43.538;5.250;2022-11-20T04:36:10;8.10;99.90
16289;DHT22;26089;43.538;5.250;2022-11-20T04:38:38;7.90;99.90
16289;DHT22;26089;43.538;5.250;2022-11-20T04:41:11;7.90;99.90
16289;DHT22;26089;43.538;5.250;2022-11-20T04:43:39;7.90;99.90
16289;DHT22;26089;43.538;5.250;2022-11-20T04:46:06;7.90;99.90
16289;DHT22;26089;43.538;5.250;2022-11-20T04:48:34;7.90;99.90
16289;DHT22;26089;43.538;5.250;2022-11-20T04:51:02;7.90;99.90
16289;DHT22;26089;43.538;5.250;2022-11-20T04:53:30;7.90;99.90
16289;DHT22;26089;43.538;5.250;2022-11-20T04:55:59;7.90;99.90
16289;DHT22;26089;43.538;5.250;2022-11-20T04:58:28;7.90;99.90
16289;DHT22;26089;43.538;5.250;2022-11-20T05:01:01;7.90;99.90
16289;DHT22;26089;43.538;5.250;2022-11-20T05:03:29;7.90;99.90
16289;DHT22;26089;43.538;5.250;2022-11-20T05:05:59;7.10;99.90
16289;DHT22;26089;43.538;5.250;2022-11-20T05:08:26;7.90;99.90
16289;DHT22;26089;43.538;5.250;2022-11-20T05:10:53;7.80;99.90
16289;DHT22;26089;43.538;5.250;2022-11-20T05:13:20;7.80;99.90
16289;DHT22;26089;43.538;5.250;2022-11-20T05:15:48;7.70;99.90
16289;DHT22;26089;43.538;5.250;2022-11-20T05:18:15;7.80;99.90
16289;DHT22;26089;43.538;5.250;2022-11-20T05:20:42;7.80;99.90
16289;DHT22;26089;43.538;5.250;2022-11-20T05:23:09;7.80;99.90
16289;DHT22;26089;43.538;5.250;2022-11-20T05:25:36;7.80;99.90
16289;DHT22;26089;43.538;5.250;2022-11-20T05:28:03;8.10;99.90
16289;DHT22;26089;43.538;5.250;2022-11-20T05:30:30;7.70;99.90
16289;DHT22;26089;43.538;5.250;2022-11-20T05:32:59;7.80;99.90
16289;DHT22;26089;43.538;5.250;2022-11-20T05:35:25;7.70;99.90
16289;DHT22;26089;43.538;5.250;2022-11-20T05:37:52;7.70;99.90
16289;DHT22;26089;43.538;5.250;2022-11-20T05:40:19;8.00;99.90
16289;DHT22;26089;43.538;5.250;2022-11-20T05:42:46;7.70;99.90
16289;DHT22;26089;43.538;5.250;2022-11-20T05:45:13;7.70;99.90
16289;DHT22;26089;43.538;5.250;2022-11-20T05:47:40;7.70;99.90
16289;DHT22;26089;43.538;5.250;2022-11-20T05:50:09;7.60;99.90
16289;DHT22;26089;43.538;5.250;2022-11-20T05:52:36;7.60;99.90
16289;DHT22;26089;43.538;5.250;2022-11-20T05:55:03;7.60;99.90
16289;DHT22;26089;43.538;5.250;2022-11-20T05:57:31;7.50;99.90
16289;DHT22;26089;43.538;5.250;2022-11-20T05:59:58;7.60;99.90
16289;DHT22;26089;43.538;5.250;2022-11-20T06:02:25;7.60;99.90
16289;DHT22;26089;43.538;5.250;2022-11-20T06:04:52;7.40;99.90
16289;DHT22;26089;43.538;5.250;2022-11-20T06:07:20;7.60;99.90
16289;DHT22;26089;43.538;5.250;2022-11-20T06:09:47;7.60;99.90
16289;DHT22;26089;43.538;5.250;2022-11-20T06:12:14;8.40;99.90
16289;DHT22;26089;43.538;5.250;2022-11-20T06:14:41;7.60;99.90
16289;DHT22;26089;43.538;5.250;2022-11-20T06:17:08;7.60;99.90
16289;DHT22;26089;43.538;5.250;2022-11-20T06:19:35;7.60;99.90
16289;DHT22;26089;43.538;5.250;2022-11-20T06:22:02;7.70;99.90
16289;DHT22;26089;43.538;5.250;2022-11-20T06:24:30;7.60;99.90
16289;DHT22;26089;43.538;5.250;2022-11-20T06:26:57;7.60;99.90
16289;DHT22;26089;43.538;5.250;2022-11-20T06:29:24;7.60;99.90
16289;DHT22;26089;43.538;5.250;2022-11-20T06:31:51;7.60;99.90
16289;DHT22;26089;43.538;5.250;2022-11-20T06:34:18;7.60;99.90
16289;DHT22;26089;43.538;5.250;2022-11-20T06:36:45;7.60;99.90
16289;DHT22;26089;43.538;5.250;2022-11-20T06:39:12;8.40;99.90
16289;DHT22;26089;43.538;5.250;2022-11-20T06:41:40;7.50;99.90
16289;DHT22;26089;43.538;5.250;2022-11-20T06:44:07;7.50;99.90
16289;DHT22;26089;43.538;5.250;2022-11-20T06:46:34;7.50;99.90
16289;DHT22;26089;43.538;5.250;2022-11-20T06:49:01;7.00;99.90
16289;DHT22;26089;43.538;5.250;2022-11-20T06:51:28;7.50;99.90
16289;DHT22;26089;43.538;5.250;2022-11-20T06:53:55;7.50;99.90
16289;DHT22;26089;43.538;5.250;2022-11-20T06:56:22;7.50;99.90
16289;DHT22;26089;43.538;5.250;2022-11-20T06:58:50;7.30;99.90
16289;DHT22;26089;43.538;5.250;2022-11-20T07:01:17;7.30;99.90
16289;DHT22;26089;43.538;5.250;2022-11-20T07:03:44;7.60;99.90
16289;DHT22;26089;43.538;5.250;2022-11-20T07:06:11;7.60;99.90
16289;DHT22;26089;43.538;5.250;2022-11-20T07:08:38;7.70;99.90
16289;DHT22;26089;43.538;5.250;2022-11-20T07:11:06;7.60;99.90
16289;DHT22;26089;43.538;5.250;2022-11-20T07:13:33;8.30;99.90
16289;DHT22;26089;43.538;5.250;2022-11-20T07:16:03;7.80;99.90
16289;DHT22;26089;43.538;5.250;2022-11-20T07:18:31;7.70;99.90
16289;DHT22;26089;43.538;5.250;2022-11-20T07:21:00;7.80;99.90
16289;DHT22;26089;43.538;5.250;2022-11-20T07:23:28;7.80;99.90
16289;DHT22;26089;43.538;5.250;2022-11-20T07:25:54;7.60;99.90
16289;DHT22;26089;43.538;5.250;2022-11-20T07:28:21;7.90;99.90
16289;DHT22;26089;43.538;5.250;2022-11-20T07:30:52;8.00;99.90
16289;DHT22;26089;43.538;5.250;2022-11-20T07:33:21;8.10;99.90
16289;DHT22;26089;43.538;5.250;2022-11-20T07:35:48;8.00;99.90
16289;DHT22;26089;43.538;5.250;2022-11-20T07:38:14;8.10;99.90
16289;DHT22;26089;43.538;5.250;2022-11-20T07:40:41;9.20;99.90
16289;DHT22;26089;43.538;5.250;2022-11-20T07:43:08;8.30;99.90
16289;DHT22;26089;43.538;5.250;2022-11-20T07:45:35;8.20;99.90
16289;DHT22;26089;43.538;5.250;2022-11-20T07:48:03;8.50;99.90
16289;DHT22;26089;43.538;5.250;2022-11-20T07:50:31;8.40;99.90
16289;DHT22;26089;43.538;5.250;2022-11-20T07:53:02;8.50;99.90
16289;DHT22;26089;43.538;5.250;2022-11-20T07:55:29;8.30;99.90
16289;DHT22;26089;43.538;5.250;2022-11-20T07:57:56;8.60;99.90
16289;DHT22;26089;43.538;5.250;2022-11-20T08:00:24;8.60;99.90
16289;DHT22;26089;43.538;5.250;2022-11-20T08:02:51;8.70;99.90
16289;DHT22;26089;43.538;5.250;2022-11-20T08:05:18;8.80;99.90
16289;DHT22;26089;43.538;5.250;2022-11-20T08:07:47;9.20;99.90
16289;DHT22;26089;43.538;5.250;2022-11-20T08:10:15;8.90;99.90
16289;DHT22;26089;43.538;5.250;2022-11-20T08:12:45;9.00;99.90
16289;DHT22;26089;43.538;5.250;2022-11-20T08:15:30;9.10;99.90
16289;DHT22;26089;43.538;5.250;2022-11-20T08:18:01;9.20;99.90
16289;DHT22;26089;43.538;5.250;2022-11-20T08:20:28;9.70;99.90
16289;DHT22;26089;43.538;5.250;2022-11-20T08:23:01;9.30;99.90
16289;DHT22;26089;43.538;5.250;2022-11-20T08:25:28;9.30;99.90
16289;DHT22;26089;43.538;5.250;2022-11-20T08:27:57;9.30;99.90
16289;DHT22;26089;43.538;5.250;2022-11-20T08:30:25;9.30;99.90
16289;DHT22;26089;43.538;5.250;2022-11-20T08:32:53;9.30;99.90
16289;DHT22;26089;43.538;5.250;2022-11-20T08:35:21;9.70;99.90
16289;DHT22;26089;43.538;5.250;2022-11-20T08:37:48;9.50;99.90
16289;DHT22;26089;43.538;5.250;2022-11-20T08:40:16;9.60;99.90
16289;DHT22;26089;43.538;5.250;2022-11-20T08:42:47;9.60;99.90
16289;DHT22;26089;43.538;5.250;2022-11-20T08:45:14;9.60;99.90
16289;DHT22;26089;43.538;5.250;2022-11-20T08:47:41;9.60;99.90
16289;DHT22;26089;43.538;5.250;2022-11-20T08:50:08;9.60;99.90
16289;DHT22;26089;43.538;5.250;2022-11-20T08:52:36;9.70;99.90
16289;DHT22;26089;43.538;5.250;2022-11-20T08:55:04;9.80;99.90
16289;DHT22;26089;43.538;5.250;2022-11-20T08:57:33;9.90;99.90
16289;DHT22;26089;43.538;5.250;2022-11-20T09:00:01;9.90;99.90
16289;DHT22;26089;43.538;5.250;2022-11-20T09:02:28;10.00;99.90
16289;DHT22;26089;43.538;5.250;2022-11-20T09:04:55;10.00;99.90
16289;DHT22;26089;43.538;5.250;2022-11-20T09:07:22;10.00;99.90
16289;DHT22;26089;43.538;5.250;2022-11-20T09:09:49;10.10;99.90
16289;DHT22;26089;43.538;5.250;2022-11-20T09:12:16;10.20;99.90
16289;DHT22;26089;43.538;5.250;2022-11-20T09:14:44;10.20;99.90
16289;DHT22;26089;43.538;5.250;2022-11-20T09:17:11;10.30;99.90
16289;DHT22;26089;43.538;5.250;2022-11-20T09:19:40;10.30;99.90
16289;DHT22;26089;43.538;5.250;2022-11-20T09:22:07;10.30;99.90
16289;DHT22;26089;43.538;5.250;2022-11-20T09:24:35;10.20;99.90
16289;DHT22;26089;43.538;5.250;2022-11-20T09:27:03;10.30;99.90
16289;DHT22;26089;43.538;5.250;2022-11-20T09:29:31;10.40;99.90
16289;DHT22;26089;43.538;5.250;2022-11-20T09:31:59;10.50;99.90
16289;DHT22;26089;43.538;5.250;2022-11-20T09:34:26;10.70;99.90
16289;DHT22;26089;43.538;5.250;2022-11-20T09:36:53;10.80;99.90
16289;DHT22;26089;43.538;5.250;2022-11-20T09:39:20;10.90;99.90
16289;DHT22;26089;43.538;5.250;2022-11-20T09:42:00;10.80;99.90
16289;DHT22;26089;43.538;5.250;2022-11-20T09:44:49;10.80;99.90
16289;DHT22;26089;43.538;5.250;2022-11-20T09:47:27;10.80;99.90
16289;DHT22;26089;43.538;5.250;2022-11-20T09:50:06;10.30;99.90
16289;DHT22;26089;43.538;5.250;2022-11-20T09:52:49;10.90;99.90
16289;DHT22;26089;43.538;5.250;2022-11-20T09:55:21;11.00;99.90
16289;DHT22;26089;43.538;5.250;2022-11-20T09:57:51;10.90;99.90
16289;DHT22;26089;43.538;5.250;2022-11-20T10:00:19;11.10;99.90
16289;DHT22;26089;43.538;5.250;2022-11-20T10:02:52;11.20;99.90
16289;DHT22;26089;43.538;5.250;2022-11-20T10:05:24;11.30;99.90
16289;DHT22;26089;43.538;5.250;2022-11-20T10:07:55;11.30;99.90
16289;DHT22;26089;43.538;5.250;2022-11-20T10:10:31;11.30;99.90
16289;DHT22;26089;43.538;5.250;2022-11-20T10:13:10;11.40;99.90
16289;DHT22;26089;43.538;5.250;2022-11-20T10:15:46;11.40;99.90
16289;DHT22;26089;43.538;5.250;2022-11-20T10:18:27;11.50;99.90
16289;DHT22;26089;43.538;5.250;2022-11-20T10:21:04;11.60;99.90
16289;DHT22;26089;43.538;5.250;2022-11-20T10:23:59;11.60;99.90
16289;DHT22;26089;43.538;5.250;2022-11-20T10:26:35;11.70;99.90
16289;DHT22;26089;43.538;5.250;2022-11-20T10:29:11;11.80;99.90
16289;DHT22;26089;43.538;5.250;2022-11-20T10:31:40;11.70;99.90
16289;DHT22;26089;43.538;5.250;2022-11-20T10:34:18;11.90;99.90
16289;DHT22;26089;43.538;5.250;2022-11-20T10:36:52;11.90;99.90
16289;DHT22;26089;43.538;5.250;2022-11-20T10:39:27;11.90;99.90
16289;DHT22;26089;43.538;5.250;2022-11-20T10:41:56;11.90;99.90
16289;DHT22;26089;43.538;5.250;2022-11-20T10:44:27;11.90;99.90
16289;DHT22;26089;43.538;5.250;2022-11-20T10:47:13;12.00;99.90
16289;DHT22;26089;43.538;5.250;2022-11-20T10:49:43;12.10;99.90
16289;DHT22;26089;43.538;5.250;2022-11-20T10:52:18;12.10;99.90
16289;DHT22;26089;43.538;5.250;2022-11-20T10:54:52;12.10;99.90
16289;DHT22;26089;43.538;5.250;2022-11-20T10:57:31;12.20;99.90
16289;DHT22;26089;43.538;5.250;2022-11-20T11:00:04;12.20;99.90
16289;DHT22;26089;43.538;5.250;2022-11-20T11:02:34;12.30;99.90
16289;DHT22;26089;43.538;5.250;2022-11-20T11:05:12;12.50;99.90
16289;DHT22;26089;43.538;5.250;2022-11-20T11:07:44;12.80;99.90
16289;DHT22;26089;43.538;5.250;2022-11-20T11:10:16;13.30;99.90
16289;DHT22;26089;43.538;5.250;2022-11-20T11:12:45;13.80;99.90
16289;DHT22;26089;43.538;5.250;2022-11-20T11:15:24;14.00;99.90
16289;DHT22;26089;43.538;5.250;2022-11-20T11:17:51;14.20;99.90
16289;DHT22;26089;43.538;5.250;2022-11-20T11:20:22;14.50;99.90
16289;DHT22;26089;43.538;5.250;2022-11-20T11:22:51;14.50;99.90
16289;DHT22;26089;43.538;5.250;2022-11-20T11:25:26;14.90;99.90
16289;DHT22;26089;43.538;5.250;2022-11-20T11:27:56;14.90;99.90
16289;DHT22;26089;43.538;5.250;2022-11-20T11:30:24;15.00;99.90
16289;DHT22;26089;43.538;5.250;2022-11-20T11:33:03;15.30;99.90
16289;DHT22;26089;43.538;5.250;2022-11-20T11:35:32;15.00;99.90
16289;DHT22;26089;43.538;5.250;2022-11-20T11:38:04;15.40;99.90
16289;DHT22;26089;43.538;5.250;2022-11-20T11:40:34;15.50;99.90
16289;DHT22;26089;43.538;5.250;2022-11-20T11:43:04;15.70;99.90
16289;DHT22;26089;43.538;5.250;2022-11-20T11:45:53;16.00;99.90
16289;DHT22;26089;43.538;5.250;2022-11-20T11:48:20;16.10;99.90
16289;DHT22;26089;43.538;5.250;2022-11-20T11:50:50;16.00;99.90
16289;DHT22;26089;43.538;5.250;2022-11-20T11:53:19;16.00;99.90
16289;DHT22;26089;43.538;5.250;2022-11-20T11:55:51;16.30;99.90
16289;DHT22;26089;43.538;5.250;2022-11-20T11:58:40;15.50;99.90
16289;DHT22;26089;43.538;5.250;2022-11-20T12:01:20;15.10;99.90
16289;DHT22;26089;43.538;5.250;2022-11-20T12:03:55;15.50;99.90
16289;DHT22;26089;43.538;5.250;2022-11-20T12:06:28;15.70;99.90
16289;DHT22;26089;43.538;5.250;2022-11-20T12:09:01;15.90;99.90
16289;DHT22;26089;43.538;5.250;2022-11-20T12:11:33;15.70;99.90
16289;DHT22;26089;43.538;5.250;2022-11-20T12:14:11;15.50;99.90
16289;DHT22;26089;43.538;5.250;2022-11-20T12:16:41;15.60;99.90
16289;DHT22;26089;43.538;5.250;2022-11-20T12:19:10;15.40;99.90
16289;DHT22;26089;43.538;5.250;2022-11-20T12:21:46;15.20;99.90
16289;DHT22;26089;43.538;5.250;2022-11-20T12:24:38;15.50;99.90
16289;DHT22;26089;43.538;5.250;2022-11-20T12:30:08;16.00;99.90
16289;DHT22;26089;43.538;5.250;2022-11-20T12:32:53;16.00;99.90
16289;DHT22;26089;43.538;5.250;2022-11-20T12:38:44;15.80;99.90
16289;DHT22;26089;43.538;5.250;2022-11-20T12:41:19;16.00;99.90
16289;DHT22;26089;43.538;5.250;2022-11-20T12:44:17;15.60;99.90
16289;DHT22;26089;43.538;5.250;2022-11-20T12:47:13;16.10;99.90
16289;DHT22;26089;43.538;5.250;2022-11-20T12:49:50;16.30;99.90
16289;DHT22;26089;43.538;5.250;2022-11-20T12:52:28;16.80;99.90
16289;DHT22;26089;43.538;5.250;2022-11-20T12:55:39;16.80;99.90
16289;DHT22;26089;43.538;5.250;2022-11-20T12:58:12;17.20;99.90
16289;DHT22;26089;43.538;5.250;2022-11-20T13:00:50;17.20;99.90
16289;DHT22;26089;43.538;5.250;2022-11-20T13:03:41;17.50;99.90
16289;DHT22;26089;43.538;5.250;2022-11-20T13:06:15;17.30;99.90
16289;DHT22;26089;43.538;5.250;2022-11-20T13:08:48;17.60;99.90
16289;DHT22;26089;43.538;5.250;2022-11-20T13:11:23;17.30;99.90
16289;DHT22;26089;43.538;5.250;2022-11-20T13:14:08;16.90;99.90
16289;DHT22;26089;43.538;5.250;2022-11-20T13:16:44;17.00;99.90
16289;DHT22;26089;43.538;5.250;2022-11-20T13:19:14;17.00;99.90
16289;DHT22;26089;43.538;5.250;2022-11-20T13:21:43;17.30;99.90
16289;DHT22;26089;43.538;5.250;2022-11-20T13:24:22;17.40;99.90
16289;DHT22;26089;43.538;5.250;2022-11-20T13:27:02;17.50;99.90
16289;DHT22;26089;43.538;5.250;2022-11-20T13:29:30;17.20;99.90
16289;DHT22;26089;43.538;5.250;2022-11-20T13:32:12;17.00;99.90
16289;DHT22;26089;43.538;5.250;2022-11-20T13:34:51;16.70;99.90
16289;DHT22;26089;43.538;5.250;2022-11-20T13:37:27;16.60;99.90
16289;DHT22;26089;43.538;5.250;2022-11-20T13:40:11;16.30;99.90
16289;DHT22;26089;43.538;5.250;2022-11-20T13:42:44;16.60;99.90
16289;DHT22;26089;43.538;5.250;2022-11-20T13:45:21;16.60;99.90
16289;DHT22;26089;43.538;5.250;2022-11-20T13:47:49;16.30;99.90
16289;DHT22;26089;43.538;5.250;2022-11-20T13:50:17;15.90;99.90
16289;DHT22;26089;43.538;5.250;2022-11-20T13:52:51;15.90;99.90
16289;DHT22;26089;43.538;5.250;2022-11-20T13:55:24;16.30;99.90
16289;DHT22;26089;43.538;5.250;2022-11-20T13:58:07;15.80;99.90
16289;DHT22;26089;43.538;5.250;2022-11-20T14:00:44;16.00;99.90
16289;DHT22;26089;43.538;5.250;2022-11-20T14:03:17;15.50;99.90
16289;DHT22;26089;43.538;5.250;2022-11-20T14:05:50;15.50;99.90
16289;DHT22;26089;43.538;5.250;2022-11-20T14:08:25;15.40;99.90
16289;DHT22;26089;43.538;5.250;2022-11-20T14:11:03;15.40;99.90
16289;DHT22;26089;43.538;5.250;2022-11-20T14:13:31;15.10;99.90
16289;DHT22;26089;43.538;5.250;2022-11-20T14:15:58;14.60;99.90
16289;DHT22;26089;43.538;5.250;2022-11-20T14:18:26;14.60;99.90
16289;DHT22;26089;43.538;5.250;2022-11-20T14:20:54;14.40;99.90
16289;DHT22;26089;43.538;5.250;2022-11-20T14:23:25;14.30;99.90
16289;DHT22;26089;43.538;5.250;2022-11-20T14:25:52;14.20;99.90
16289;DHT22;26089;43.538;5.250;2022-11-20T14:28:25;14.10;99.90
16289;DHT22;26089;43.538;5.250;2022-11-20T14:30:54;13.90;99.90
16289;DHT22;26089;43.538;5.250;2022-11-20T14:33:23;13.70;99.90
16289;DHT22;26089;43.538;5.250;2022-11-20T14:35:52;13.60;99.90
16289;DHT22;26089;43.538;5.250;2022-11-20T14:38:22;13.60;99.90
16289;DHT22;26089;43.538;5.250;2022-11-20T14:40:50;13.50;99.90
16289;DHT22;26089;43.538;5.250;2022-11-20T14:43:20;13.50;99.90
16289;DHT22;26089;43.538;5.250;2022-11-20T14:45:57;13.60;99.90
16289;DHT22;26089;43.538;5.250;2022-11-20T14:48:29;13.60;99.90
16289;DHT22;26089;43.538;5.250;2022-11-20T14:50:57;13.60;99.90
16289;DHT22;26089;43.538;5.250;2022-11-20T14:53:24;13.50;99.90
16289;DHT22;26089;43.538;5.250;2022-11-20T14:55:57;13.40;99.90
16289;DHT22;26089;43.538;5.250;2022-11-20T14:58:26;13.40;99.90
16289;DHT22;26089;43.538;5.250;2022-11-20T15:00:56;13.40;99.90
16289;DHT22;26089;43.538;5.250;2022-11-20T15:03:30;13.30;99.90
16289;DHT22;26089;43.538;5.250;2022-11-20T15:05:57;13.20;99.90
16289;DHT22;26089;43.538;5.250;2022-11-20T15:08:24;13.20;99.90
16289;DHT22;26089;43.538;5.250;2022-11-20T15:10:51;13.10;99.90
16289;DHT22;26089;43.538;5.250;2022-11-20T15:13:25;13.00;99.90
16289;DHT22;26089;43.538;5.250;2022-11-20T15:15:54;13.00;99.90
16289;DHT22;26089;43.538;5.250;2022-11-20T15:18:25;13.00;99.90
16289;DHT22;26089;43.538;5.250;2022-11-20T15:20:55;13.00;99.90
16289;DHT22;26089;43.538;5.250;2022-11-20T15:23:23;12.90;99.90
16289;DHT22;26089;43.538;5.250;2022-11-20T15:25:50;12.80;99.90
16289;DHT22;26089;43.538;5.250;2022-11-20T15:28:19;12.70;99.90
16289;DHT22;26089;43.538;5.250;2022-11-20T15:30:47;12.70;99.90
16289;DHT22;26089;43.538;5.250;2022-11-20T15:33:14;12.50;99.90
16289;DHT22;26089;43.538;5.250;2022-11-20T15:35:43;12.40;99.90
16289;DHT22;26089;43.538;5.250;2022-11-20T15:38:10;12.40;99.90
16289;DHT22;26089;43.538;5.250;2022-11-20T15:40:37;12.40;99.90
16289;DHT22;26089;43.538;5.250;2022-11-20T15:43:04;12.20;99.90
16289;DHT22;26089;43.538;5.250;2022-11-20T15:45:38;12.00;99.90
16289;DHT22;26089;43.538;5.250;2022-11-20T15:48:11;11.90;99.90
16289;DHT22;26089;43.538;5.250;2022-11-20T15:50:46;11.90;99.90
16289;DHT22;26089;43.538;5.250;2022-11-20T15:53:13;11.90;99.90
16289;DHT22;26089;43.538;5.250;2022-11-20T15:55:40;11.80;99.90
16289;DHT22;26089;43.538;5.250;2022-11-20T15:58:07;11.80;99.90
16289;DHT22;26089;43.538;5.250;2022-11-20T16:00:34;11.80;99.90
16289;DHT22;26089;43.538;5.250;2022-11-20T16:03:01;11.90;99.90
16289;DHT22;26089;43.538;5.250;2022-11-20T16:05:28;11.90;99.90